Time;durP1;ratioP1;P1;durP2;ratioP2;P2;SDS_P1;SDS_P2;PMS_P1;PMS_P2;Temp;Humidity;BMP_temperature;BMP_pressure;BME280_temperature;BME280_humidity;BME280_pressure;Samples;Min_cycle;Max_cycle;Signal;HPM_P1;HPM_P2
2021/08/15 00:00:55;;;;;;;17.55;3.67;;;;;;;15.43;71.72;99668.28;5084521;28;20017;-64
2021/08/15 00:03:21;;;;;;;15.75;2.67;;;;;;;15.40;71.42;99658.78;5085794;28;20025;-64
2021/08/15 00:05:46;;;;;;;22.08;3.30;;;;;;;15.46;71.37;99671.59;5086112;28;20023;-64
2021/08/15 00:08:12;;;;;;;12.82;3.38;;;;;;;15.44;70.96;99662.13;5084223;28;20508;-64
2021/08/15 00:10:38;;;;;;;19.70;3.63;;;;;;;15.42;71.21;99666.56;5085749;28;20024;-64
2021/08/15 00:13:07;;;;;;;12.70;3.53;;;;;;;15.43;70.99;99660.44;5085446;28;20028;-64
2021/08/15 00:15:32;;;;;;;16.30;3.35;;;;;;;15.35;71.00;99656.34;5085628;28;20020;-63
2021/08/15 00:17:58;;;;;;;18.27;3.50;;;;;;;15.40;71.05;99660.56;5085295;28;20048;-63
2021/08/15 00:20:23;;;;;;;10.82;2.85;;;;;;;15.42;70.88;99658.72;5085711;28;20027;-64
2021/08/15 00:22:49;;;;;;;17.08;2.72;;;;;;;15.48;70.61;99648.84;5084998;28;20115;-64
2021/08/15 00:25:17;;;;;;;10.57;2.28;;;;;;;15.49;70.72;99653.16;5085614;28;20149;-64
2021/08/15 00:27:44;;;;;;;11.20;2.47;;;;;;;15.45;71.04;99635.03;5085305;28;20068;-64
2021/08/15 00:30:10;;;;;;;15.73;2.55;;;;;;;15.45;70.97;99646.38;5085541;28;20028;-64
2021/08/15 00:32:37;;;;;;;16.80;3.33;;;;;;;15.47;71.04;99636.72;5083719;28;20031;-64
2021/08/15 00:35:05;;;;;;;17.05;2.88;;;;;;;15.48;71.33;99638.41;5083706;28;20053;-64
2021/08/15 00:37:31;;;;;;;14.23;2.83;;;;;;;15.46;71.95;99642.84;5083825;28;20027;-64
2021/08/15 00:39:56;;;;;;;15.23;4.32;;;;;;;15.41;71.93;99638.72;5084951;28;20025;-64
2021/08/15 00:42:22;;;;;;;11.40;4.20;;;;;;;15.42;71.91;99632.56;5084850;28;20017;-64
2021/08/15 00:44:48;;;;;;;14.13;3.10;;;;;;;15.37;71.76;99640.59;5084225;28;20058;-64
2021/08/15 00:47:13;;;;;;;8.80;2.20;;;;;;;15.42;71.75;99640.41;5083913;28;20027;-64
2021/08/15 00:49:39;;;;;;;12.77;2.90;;;;;;;15.37;71.08;99640.59;5083431;28;20043;-64
2021/08/15 00:52:05;;;;;;;11.82;3.42;;;;;;;15.27;71.38;99624.41;5083160;28;20016;-64
2021/08/15 00:54:31;;;;;;;16.02;2.65;;;;;;;15.27;71.39;99634.06;5083392;28;20059;-63
2021/08/15 00:56:59;;;;;;;21.38;3.50;;;;;;;15.25;71.26;99647.19;5084857;28;20029;-63
2021/08/15 00:59:24;;;;;;;15.23;2.50;;;;;;;15.23;71.13;99625.47;5084634;28;20020;-64
2021/08/15 01:01:52;;;;;;;16.73;3.80;;;;;;;15.25;70.71;99639.34;5084239;28;20078;-64
2021/08/15 01:04:20;;;;;;;10.55;2.38;;;;;;;15.25;70.85;99631.50;5084333;28;20012;-64
2021/08/15 01:06:47;;;;;;;10.07;2.90;;;;;;;15.23;70.80;99618.50;5083174;28;20024;-64
2021/08/15 01:09:12;;;;;;;14.65;3.03;;;;;;;15.23;70.98;99630.69;5084316;28;20029;-63
2021/08/15 01:11:38;;;;;;;17.50;3.15;;;;;;;15.22;71.06;99629.00;5084691;28;20219;-64
2021/08/15 01:14:09;;;;;;;10.65;3.28;;;;;;;15.29;70.99;99627.00;5084164;28;20077;-68
2021/08/15 01:16:39;;;;;;;12.80;2.60;;;;;;;15.30;71.08;99620.84;5084370;28;20024;-68
2021/08/15 01:19:04;;;;;;;15.63;2.95;;;;;;;15.32;71.07;99627.72;5084008;28;20104;-68
2021/08/15 01:21:30;;;;;;;15.98;2.97;;;;;;;15.33;70.84;99626.81;5084105;28;20043;-68
2021/08/15 01:23:55;;;;;;;8.93;2.38;;;;;;;15.34;70.82;99623.28;5082455;28;20052;-68
2021/08/15 01:26:22;;;;;;;13.10;2.90;;;;;;;15.39;70.74;99632.69;5084264;28;20027;-68
2021/08/15 01:28:52;;;;;;;20.88;2.72;;;;;;;15.39;70.77;99624.84;5084156;28;20054;-68
2021/08/15 01:31:19;;;;;;;16.40;3.65;;;;;;;15.35;70.67;99622.34;5083934;28;20056;-68
2021/08/15 01:33:44;;;;;;;11.32;3.15;;;;;;;15.40;70.60;99613.50;5083978;28;20082;-69
2021/08/15 01:36:13;;;;;;;12.93;2.50;;;;;;;15.42;70.52;99617.72;5084107;28;20370;-69
2021/08/15 01:38:40;;;;;;;12.88;2.97;;;;;;;15.43;70.77;99626.44;5083866;28;20285;-68
2021/08/15 01:41:06;;;;;;;14.20;3.00;;;;;;;15.42;70.73;99617.72;5083892;28;20021;-68
2021/08/15 01:43:34;;;;;;;18.23;2.97;;;;;;;15.44;70.82;99623.75;5083573;28;20024;-69
2021/08/15 01:46:01;;;;;;;13.32;3.60;;;;;;;15.49;70.76;99613.09;5082451;28;20038;-67
2021/08/15 01:48:26;;;;;;;7.25;3.13;;;;;;;15.49;70.80;99608.69;5083495;28;20078;-68
2021/08/15 01:50:52;;;;;;;12.55;3.08;;;;;;;15.49;70.94;99613.09;5082468;28;20029;-68
2021/08/15 01:53:19;;;;;;;15.18;2.42;;;;;;;15.47;71.40;99612.31;5083427;28;20131;-68
2021/08/15 01:55:45;;;;;;;12.63;2.30;;;;;;;15.48;71.45;99611.38;5083678;28;20020;-68
2021/08/15 01:58:11;;;;;;;20.48;3.40;;;;;;;15.47;71.43;99612.31;5082157;28;20032;-68
2021/08/15 02:00:41;;;;;;;12.75;2.83;;;;;;;15.48;71.70;99598.31;5083091;28;20017;-68
2021/08/15 02:03:07;;;;;;;14.30;2.95;;;;;;;15.51;71.42;99600.78;5083326;28;20017;-67
2021/08/15 02:05:33;;;;;;;11.88;2.60;;;;;;;15.47;71.60;99594.00;5083332;28;20025;-67
2021/08/15 02:08:00;;;;;;;12.50;2.78;;;;;;;15.49;71.38;99592.19;5083291;28;20073;-68
2021/08/15 02:10:27;;;;;;;12.73;3.33;;;;;;;15.48;71.35;99593.06;5083535;28;20024;-68
2021/08/15 02:12:54;;;;;;;11.65;2.70;;;;;;;15.47;71.52;99597.47;5083216;28;20440;-69
2021/08/15 02:15:20;;;;;;;8.73;2.30;;;;;;;15.49;71.40;99589.56;5083271;28;20035;-68
2021/08/15 02:17:46;;;;;;;12.18;2.58;;;;;;;15.53;71.60;99595.53;5083125;28;20402;-67
2021/08/15 02:20:15;;;;;;;13.70;3.10;;;;;;;15.52;71.43;99594.66;5083226;28;20025;-68
2021/08/15 02:22:41;;;;;;;12.60;2.88;;;;;;;15.52;71.53;99586.81;5082940;28;20041;-67
2021/08/15 02:25:09;;;;;;;16.50;3.22;;;;;;;15.51;71.50;99584.25;5081802;28;20024;-68
2021/08/15 02:27:35;;;;;;;12.38;2.72;;;;;;;15.58;71.60;99593.53;5083114;28;20024;-67
2021/08/15 02:30:00;;;;;;;7.93;2.38;;;;;;;15.58;71.36;99593.53;5083058;28;20059;-68
2021/08/15 02:32:26;;;;;;;9.02;1.80;;;;;;;15.57;71.44;99599.69;5082992;28;20039;-68
2021/08/15 02:34:51;;;;;;;13.90;3.53;;;;;;;15.55;71.64;99597.16;5083212;28;20046;-68
2021/08/15 02:37:18;;;;;;;16.25;3.20;;;;;;;15.51;71.38;99582.47;5083101;28;20036;-67
2021/08/15 02:39:43;;;;;;;11.00;3.13;;;;;;;15.56;71.42;99590.16;5083166;28;20251;-67
2021/08/15 02:42:09;;;;;;;17.30;3.15;;;;;;;15.59;71.37;99587.41;5082942;28;20363;-67
2021/08/15 02:44:34;;;;;;;13.63;2.88;;;;;;;15.59;71.52;99583.00;5082972;28;20124;-68
2021/08/15 02:46:59;;;;;;;9.18;2.85;;;;;;;15.62;71.43;99582.03;5082881;28;20048;-68
2021/08/15 02:49:25;;;;;;;14.88;2.78;;;;;;;15.64;71.36;99568.91;5082901;28;20029;-68
2021/08/15 02:51:50;;;;;;;14.15;2.70;;;;;;;15.62;71.33;99574.19;5082976;28;20217;-69
2021/08/15 02:54:15;;;;;;;16.17;3.28;;;;;;;15.58;71.07;99570.84;5082767;28;20389;-68
2021/08/15 02:56:41;;;;;;;10.23;3.70;;;;;;;15.55;71.27;99568.38;5083118;28;20020;-68
2021/08/15 02:59:06;;;;;;;15.68;3.10;;;;;;;15.58;71.44;99570.84;5082988;28;20017;-68
2021/08/15 03:01:31;;;;;;;14.90;3.35;;;;;;;15.64;71.66;99571.50;5082586;28;20485;-68
2021/08/15 03:03:57;;;;;;;14.95;4.90;;;;;;;15.64;71.47;99576.75;5082718;28;20024;-68
2021/08/15 03:06:22;;;;;;;15.02;3.65;;;;;;;15.61;71.85;99572.47;5082759;28;20094;-67
2021/08/15 03:08:47;;;;;;;11.15;2.67;;;;;;;15.59;71.93;99577.78;5082566;28;20020;-68
2021/08/15 03:11:13;;;;;;;14.73;3.17;;;;;;;15.63;72.00;99562.81;5081666;28;20020;-68
2021/08/15 03:13:38;;;;;;;11.27;3.08;;;;;;;15.57;72.02;99568.31;5084120;28;20024;-68
2021/08/15 03:16:03;;;;;;;20.42;3.75;;;;;;;15.57;72.16;99568.31;5086752;28;20074;-68
2021/08/15 03:18:29;;;;;;;8.32;2.28;;;;;;;15.52;72.17;99576.34;5086148;28;20079;-68
2021/08/15 03:20:54;;;;;;;14.95;2.90;;;;;;;15.52;72.44;99581.56;5086441;28;20020;-68
2021/08/15 03:23:19;;;;;;;12.35;2.92;;;;;;;15.51;72.52;99574.63;5085907;28;20067;-68
2021/08/15 03:25:45;;;;;;;20.10;3.53;;;;;;;15.49;72.40;99573.88;5086171;28;20045;-68
2021/08/15 03:28:10;;;;;;;15.75;3.42;;;;;;;15.47;72.57;99567.84;5085190;28;20026;-68
2021/08/15 03:30:35;;;;;;;15.63;3.85;;;;;;;15.50;72.30;99578.16;5085178;28;20103;-68
2021/08/15 03:33:01;;;;;;;14.23;2.70;;;;;;;15.47;72.12;99570.47;5085796;28;20469;-68
2021/08/15 03:35:26;;;;;;;15.00;3.00;;;;;;;15.48;72.44;99580.00;5085973;28;20024;-68
2021/08/15 03:37:52;;;;;;;14.95;2.83;;;;;;;15.42;72.29;99570.66;5086078;28;20016;-68
2021/08/15 03:40:17;;;;;;;15.93;2.95;;;;;;;15.43;72.61;99577.56;5086021;28;20036;-68
2021/08/15 03:42:43;;;;;;;10.48;2.72;;;;;;;15.39;72.25;99569.91;5085689;28;20020;-67
2021/08/15 03:45:09;;;;;;;15.75;3.45;;;;;;;15.44;72.58;99578.44;5086056;28;20035;-67
2021/08/15 03:47:35;;;;;;;10.25;2.97;;;;;;;15.44;72.29;99568.84;5085795;28;20059;-68
2021/08/15 03:50:02;;;;;;;20.35;4.53;;;;;;;15.48;72.12;99570.38;5085902;28;20025;-68
2021/08/15 03:52:27;;;;;;;15.48;3.20;;;;;;;15.49;72.18;99568.63;5085841;28;20036;-67
2021/08/15 03:54:53;;;;;;;13.02;3.17;;;;;;;15.49;72.08;99566.03;5085706;28;20024;-67
2021/08/15 03:57:18;;;;;;;12.63;3.03;;;;;;;15.49;71.99;99566.03;5084214;28;20029;-68
2021/08/15 03:59:44;;;;;;;17.08;2.78;;;;;;;15.50;71.77;99559.88;5085684;28;20062;-68
2021/08/15 04:02:10;;;;;;;12.40;3.22;;;;;;;15.52;71.85;99565.03;5085342;28;20028;-67
2021/08/15 04:04:36;;;;;;;10.73;2.60;;;;;;;15.45;71.70;99546.97;5085328;28;20051;-68
2021/08/15 04:07:01;;;;;;;12.23;2.97;;;;;;;15.57;71.30;99550.84;5085509;28;20024;-67
2021/08/15 04:09:27;;;;;;;11.95;2.58;;;;;;;15.59;71.06;99542.94;5085402;28;20020;-68
2021/08/15 04:11:52;;;;;;;12.38;3.53;;;;;;;15.61;70.60;99554.16;5083919;28;20024;-67
2021/08/15 04:14:18;;;;;;;15.70;3.15;;;;;;;15.59;70.92;99548.16;5085114;28;20028;-68
2021/08/15 04:16:43;;;;;;;19.50;3.33;;;;;;;15.59;71.12;99543.75;5085211;28;20024;-68
2021/08/15 04:19:08;;;;;;;21.00;3.45;;;;;;;15.67;71.56;99542.59;5084961;28;20045;-68
2021/08/15 04:21:34;;;;;;;16.85;3.60;;;;;;;15.68;71.99;99547.75;5085088;28;20174;-67
2021/08/15 04:23:59;;;;;;;11.57;3.05;;;;;;;15.69;71.97;99539.00;5084460;28;20027;-67
2021/08/15 04:26:25;;;;;;;8.13;2.58;;;;;;;15.65;72.19;99534.81;5085279;28;20059;-68
2021/08/15 04:28:50;;;;;;;16.23;3.47;;;;;;;15.60;72.11;99526.31;5085076;28;20020;-68
2021/08/15 04:31:16;;;;;;;17.90;3.53;;;;;;;15.64;72.23;99533.09;5085043;28;20024;-68
2021/08/15 04:33:41;;;;;;;14.05;2.78;;;;;;;15.67;72.31;99519.88;5084653;28;20025;-70
2021/08/15 04:36:07;;;;;;;15.38;2.35;;;;;;;15.61;72.52;99541.94;5084952;28;20076;-68
2021/08/15 04:38:32;;;;;;;15.77;2.85;;;;;;;15.56;72.81;99546.50;5084860;28;20477;-68
2021/08/15 04:40:57;;;;;;;15.18;3.10;;;;;;;15.53;73.05;99545.81;5084842;28;20024;-68
2021/08/15 04:43:23;;;;;;;12.43;2.47;;;;;;;15.52;73.63;99552.81;5084800;28;20050;-69
2021/08/15 04:45:48;;;;;;;17.45;3.22;;;;;;;15.49;73.65;99545.09;5084989;28;20029;-68
2021/08/15 04:48:15;;;;;;;15.75;4.00;;;;;;;15.47;73.86;99546.91;5084665;28;20028;-69
2021/08/15 04:50:40;;;;;;;10.18;3.10;;;;;;;15.47;73.70;99542.53;5084914;28;20021;-68
2021/08/15 04:53:06;;;;;;;12.57;2.85;;;;;;;15.42;73.57;99539.28;5084458;28;20092;-67
2021/08/15 04:55:31;;;;;;;8.55;3.20;;;;;;;15.43;73.44;99543.56;5084717;28;20016;-67
2021/08/15 04:57:57;;;;;;;9.80;2.55;;;;;;;15.46;73.77;99553.06;5084622;28;20051;-68
2021/08/15 05:00:22;;;;;;;13.68;2.45;;;;;;;15.46;73.80;99555.69;5084508;28;20028;-68
2021/08/15 05:02:47;;;;;;;7.13;2.20;;;;;;;15.43;73.74;99555.81;5084249;28;20032;-68
2021/08/15 05:05:13;;;;;;;18.08;3.58;;;;;;;15.46;73.80;99560.91;5084522;28;20025;-67
2021/08/15 05:07:38;;;;;;;12.10;2.58;;;;;;;15.47;73.84;99546.91;5084447;28;20092;-67
2021/08/15 05:10:04;;;;;;;10.80;3.55;;;;;;;15.67;73.86;99564.34;5084178;28;20028;-68
2021/08/15 05:12:29;;;;;;;13.82;3.78;;;;;;;15.98;73.22;99552.59;5084294;28;20027;-69
2021/08/15 05:14:55;;;;;;;13.48;2.47;;;;;;;16.22;72.19;99559.38;5084327;28;20055;-68
2021/08/15 05:17:20;;;;;;;15.27;2.88;;;;;;;16.25;71.72;99543.53;5084211;28;20023;-69
2021/08/15 05:19:45;;;;;;;15.93;2.92;;;;;;;16.37;70.87;99549.13;5084187;28;20053;-68
2021/08/15 05:22:11;;;;;;;12.48;2.92;;;;;;;16.35;70.86;99550.06;5082620;28;20028;-68
2021/08/15 05:24:36;;;;;;;12.57;2.40;;;;;;;16.29;70.46;99547.72;5083805;28;20060;-68
2021/08/15 05:27:02;;;;;;;10.57;2.22;;;;;;;16.29;70.46;99559.97;5082747;28;20021;-69
2021/08/15 05:29:27;;;;;;;13.23;2.45;;;;;;;16.24;70.80;99560.19;5083944;28;20029;-68
2021/08/15 05:31:52;;;;;;;10.20;2.35;;;;;;;16.16;70.56;99552.69;5084033;28;20048;-67
2021/08/15 05:34:18;;;;;;;13.40;2.90;;;;;;;16.13;70.93;99565.91;5083744;28;20431;-68
2021/08/15 05:36:43;;;;;;;13.48;2.85;;;;;;;16.06;71.20;99560.09;5083477;28;20043;-69
2021/08/15 05:39:09;;;;;;;12.40;2.75;;;;;;;16.05;71.28;99553.16;5083860;28;20024;-69
2021/08/15 05:41:34;;;;;;;10.05;2.55;;;;;;;16.04;71.43;99555.84;5084001;28;20027;-68
2021/08/15 05:43:59;;;;;;;12.43;2.40;;;;;;;16.03;71.73;99560.22;5083712;28;20075;-68
2021/08/15 05:46:25;;;;;;;15.85;2.50;;;;;;;16.13;71.53;99559.81;5082458;28;20024;-68
2021/08/15 05:48:50;;;;;;;12.07;2.92;;;;;;;16.26;71.27;99558.34;5083542;28;20016;-68
2021/08/15 05:51:15;;;;;;;14.55;3.25;;;;;;;16.25;71.03;99554.00;5083570;28;20021;-68
2021/08/15 05:53:41;;;;;;;13.65;2.55;;;;;;;16.30;70.74;99565.13;5081843;28;20066;-68
2021/08/15 05:56:07;;;;;;;11.27;2.60;;;;;;;16.29;70.78;99550.34;5082254;28;20520;-68
2021/08/15 05:58:32;;;;;;;15.32;3.83;;;;;;;16.30;70.91;99557.28;5083476;28;20024;-68
2021/08/15 06:00:57;;;;;;;17.40;3.13;;;;;;;16.44;70.96;99568.88;5083494;28;20021;-67
2021/08/15 06:03:23;;;;;;;9.38;2.20;;;;;;;16.55;70.99;99565.78;5083457;28;20069;-67
2021/08/15 06:05:48;;;;;;;15.73;2.80;;;;;;;16.79;70.92;99565.53;5082209;28;20025;-68
2021/08/15 06:08:15;;;;;;;12.82;2.50;;;;;;;17.32;70.36;99562.97;5083268;28;20077;-69
2021/08/15 06:10:41;;;;;;;17.48;3.33;;;;;;;17.56;68.01;99560.88;5083724;28;20036;-68
2021/08/15 06:13:06;;;;;;;9.90;3.08;;;;;;;17.86;67.81;99558.53;5083272;28;20028;-67
2021/08/15 06:15:31;;;;;;;9.20;2.60;;;;;;;17.98;66.15;99562.28;5083834;28;20025;-68
2021/08/15 06:17:57;;;;;;;15.40;3.10;;;;;;;17.93;66.35;99570.41;5083202;28;20040;-68
2021/08/15 06:20:22;;;;;;;10.13;3.42;;;;;;;17.79;66.05;99558.84;5083349;28;20080;-67
2021/08/15 06:22:47;;;;;;;9.82;3.50;;;;;;;17.75;65.76;99557.31;5083280;28;20033;-67
2021/08/15 06:25:14;;;;;;;11.07;2.75;;;;;;;17.59;65.23;99560.72;5083208;28;20491;-68
2021/08/15 06:27:44;;;;;;;12.63;2.72;;;;;;;17.69;66.09;99570.75;5083092;28;20480;-68
2021/08/15 06:30:11;;;;;;;10.65;3.13;;;;;;;18.26;65.81;99560.84;5081878;28;20051;-68
2021/08/15 06:32:51;;;;;;;12.98;2.63;;;;;;;19.15;64.28;99577.81;5083463;28;20121;-69
2021/08/15 06:35:18;;;;;;;10.90;2.10;;;;;;;19.99;60.51;99574.69;5083197;28;20020;-68
2021/08/15 06:37:44;;;;;;;9.35;2.08;;;;;;;20.51;57.71;99569.75;5082952;28;20024;-69
2021/08/15 06:40:10;;;;;;;12.93;2.28;;;;;;;20.78;56.70;99578.63;5083080;28;20044;-68
2021/08/15 06:42:36;;;;;;;8.98;2.10;;;;;;;21.41;56.59;99573.66;5081844;28;20021;-68
2021/08/15 06:45:01;;;;;;;8.93;2.30;;;;;;;21.88;53.64;99577.59;5083289;28;20028;-68
2021/08/15 06:47:27;;;;;;;6.50;1.30;;;;;;;22.18;52.42;99581.69;5085709;28;20025;-67
2021/08/15 06:49:53;;;;;;;11.32;2.10;;;;;;;22.53;52.44;99580.13;5087332;28;20021;-68
2021/08/15 06:52:18;;;;;;;12.38;2.28;;;;;;;22.82;50.45;99577.19;5086968;28;20036;-68
2021/08/15 06:54:43;;;;;;;8.27;2.85;;;;;;;22.70;50.92;99578.91;5085477;28;20016;-67
2021/08/15 06:57:09;;;;;;;11.10;2.45;;;;;;;22.70;50.37;99570.16;5087208;28;20028;-68
2021/08/15 06:59:34;;;;;;;13.65;2.40;;;;;;;22.43;50.63;99569.34;5086849;28;20051;-68
2021/08/15 07:02:00;;;;;;;10.18;2.38;;;;;;;22.13;51.20;99584.66;5086845;28;20078;-67
2021/08/15 07:04:25;;;;;;;13.73;2.60;;;;;;;22.19;51.45;99579.91;5086877;28;20087;-67
2021/08/15 07:06:50;;;;;;;11.52;2.50;;;;;;;21.87;51.80;99581.22;5086680;28;20348;-67
2021/08/15 07:09:16;;;;;;;9.10;2.63;;;;;;;21.54;52.34;99593.94;5086647;28;20036;-68
2021/08/15 07:11:41;;;;;;;11.32;1.85;;;;;;;21.07;52.99;99586.44;5086797;28;20028;-68
2021/08/15 07:14:06;;;;;;;12.20;3.00;;;;;;;20.53;54.21;99590.72;5086562;28;20028;-68
2021/08/15 07:16:32;;;;;;;11.05;2.00;;;;;;;20.08;55.55;99578.56;5086515;28;20088;-68
2021/08/15 07:18:57;;;;;;;13.93;2.80;;;;;;;19.99;56.83;99603.66;5085112;28;20052;-68
2021/08/15 07:21:22;;;;;;;11.77;2.38;;;;;;;20.52;56.43;99591.69;5086550;28;20032;-68
2021/08/15 07:23:48;;;;;;;15.48;2.53;;;;;;;20.91;55.17;99589.25;5086389;28;20044;-69
2021/08/15 07:26:13;;;;;;;9.85;2.88;;;;;;;20.84;54.34;99595.84;5086692;28;20105;-68
2021/08/15 07:28:39;;;;;;;8.38;2.35;;;;;;;20.77;54.91;99593.59;5086394;28;20034;-69
2021/08/15 07:31:04;;;;;;;8.80;1.98;;;;;;;20.81;54.20;99600.38;5086356;28;20070;-68
2021/08/15 07:33:30;;;;;;;7.57;2.25;;;;;;;20.80;54.66;99600.47;5086098;28;20021;-65
2021/08/15 07:35:55;;;;;;;12.45;1.85;;;;;;;20.87;54.42;99600.91;5086105;28;20107;-66
2021/08/15 07:38:21;;;;;;;6.93;1.75;;;;;;;21.04;53.19;99590.16;5085682;28;20328;-63
2021/08/15 07:40:47;;;;;;;7.47;2.15;;;;;;;21.40;53.06;99593.09;5086065;28;20024;-62
2021/08/15 07:43:12;;;;;;;11.80;2.40;;;;;;;21.59;51.24;99596.25;5085972;28;20046;-63
2021/08/15 07:45:38;;;;;;;6.72;2.05;;;;;;;21.94;51.98;99598.31;5086047;28;20021;-64
2021/08/15 07:48:04;;;;;;;9.27;2.10;;;;;;;22.38;50.88;99593.50;5086191;28;20028;-65
2021/08/15 07:50:36;;;;;;;10.50;2.03;;;;;;;22.50;50.13;99604.16;5086024;28;20111;-64
2021/08/15 07:53:21;;;;;;;6.72;1.80;;;;;;;22.56;49.91;99610.81;5085875;28;20036;-64
2021/08/15 07:55:48;;;;;;;11.40;2.67;;;;;;;22.33;50.01;99608.84;5084197;28;20051;-63
2021/08/15 07:58:13;;;;;;;12.80;2.03;;;;;;;22.38;48.79;99595.31;5084963;28;20020;-63
2021/08/15 08:00:39;;;;;;;7.95;1.77;;;;;;;22.92;47.35;99600.31;5085778;28;20086;-65
2021/08/15 08:03:05;;;;;;;7.05;2.33;;;;;;;23.28;45.66;99611.78;5085582;28;20457;-63
2021/08/15 08:05:31;;;;;;;5.78;1.58;;;;;;;23.52;44.69;99597.69;5085718;28;20028;-64
2021/08/15 08:07:56;;;;;;;6.05;1.52;;;;;;;23.51;44.38;99602.13;5085402;28;20024;-63
2021/08/15 08:10:22;;;;;;;6.88;2.33;;;;;;;23.67;43.89;99595.66;5085596;28;20036;-63
2021/08/15 08:12:48;;;;;;;6.70;1.80;;;;;;;23.74;44.00;99603.97;5085618;28;20012;-66
2021/08/15 08:15:13;;;;;;;5.53;1.63;;;;;;;24.11;43.35;99600.25;5085597;28;20021;-64
2021/08/15 08:17:39;;;;;;;9.05;1.80;;;;;;;24.73;41.81;99603.34;5083850;28;20052;-64
2021/08/15 08:20:05;;;;;;;8.82;2.13;;;;;;;25.03;40.39;99603.66;5085388;28;20024;-66
2021/08/15 08:22:30;;;;;;;8.10;1.85;;;;;;;25.48;40.19;99602.56;5084841;28;20032;-65
2021/08/15 08:24:56;;;;;;;8.52;2.00;;;;;;;25.82;39.48;99613.97;5084916;28;20020;-65
2021/08/15 08:27:21;;;;;;;4.30;1.50;;;;;;;26.19;39.04;99597.50;5083831;28;20032;-66
2021/08/15 08:29:47;;;;;;;6.78;1.70;;;;;;;26.03;38.18;99607.78;5085252;28;20054;-64
2021/08/15 08:32:13;;;;;;;6.72;1.85;;;;;;;25.89;38.15;99612.50;5085106;28;20021;-64
2021/08/15 08:34:38;;;;;;;7.70;1.88;;;;;;;25.61;37.75;99609.50;5084699;28;20020;-63
2021/08/15 08:37:04;;;;;;;10.38;1.40;;;;;;;25.41;38.67;99612.03;5084743;28;20055;-63
2021/08/15 08:39:30;;;;;;;5.28;1.50;;;;;;;25.78;37.97;99612.56;5084575;28;20032;-63
2021/08/15 08:42:02;;;;;;;6.50;1.58;;;;;;;26.06;37.15;99611.03;5084928;28;20373;-64
2021/08/15 08:44:29;;;;;;;7.78;2.40;;;;;;;26.10;36.03;99615.09;5084463;28;20069;-64
2021/08/15 08:47:02;;;;;;;4.55;1.27;;;;;;;26.18;36.34;99619.75;5083466;28;20039;-68
2021/08/15 08:49:29;;;;;;;6.93;2.47;;;;;;;26.55;36.02;99618.34;5084834;28;20051;-64
2021/08/15 08:51:56;;;;;;;6.97;1.60;;;;;;;27.04;34.43;99620.28;5084694;28;20181;-64
2021/08/15 08:54:22;;;;;;;5.78;1.67;;;;;;;27.32;33.90;99622.22;5084386;28;20043;-65
2021/08/15 08:56:48;;;;;;;5.30;1.67;;;;;;;27.45;33.67;99628.09;5084682;28;20056;-65
2021/08/15 08:59:13;;;;;;;6.78;1.63;;;;;;;27.60;33.70;99630.31;5084595;28;20115;-63
2021/08/15 09:01:41;;;;;;;7.35;1.48;;;;;;;27.84;33.38;99626.38;5084354;28;20524;-69
2021/08/15 09:04:07;;;;;;;7.03;1.77;;;;;;;28.17;32.09;99624.13;5084210;28;20047;-72
2021/08/15 09:06:32;;;;;;;6.75;1.60;;;;;;;27.43;32.56;99630.06;5084381;28;20020;-70
2021/08/15 09:09:11;;;;;;;10.35;2.28;;;;;;;26.88;33.96;99633.25;5083888;28;20298;-69
2021/08/15 09:11:37;;;;;;;8.88;1.95;;;;;;;27.00;34.41;99641.97;5083744;28;20031;-64
2021/08/15 09:14:11;;;;;;;6.72;1.83;;;;;;;27.08;33.67;99634.97;5084294;28;20012;-67
2021/08/15 09:17:01;;;;;;;8.60;1.67;;;;;;;26.68;34.53;99636.72;5084223;28;20103;-69
2021/08/15 09:19:38;;;;;;;14.20;1.90;;;;;;;26.75;34.92;99649.50;5084072;28;20478;-68
2021/08/15 09:22:19;;;;;;;7.28;2.13;;;;;;;26.92;34.42;99645.31;5084060;28;20034;-64
2021/08/15 09:24:49;;;;;;;10.73;1.90;;;;;;;27.13;34.36;99655.88;5083854;28;20025;-64
2021/08/15 09:27:25;;;;;;;9.80;2.45;;;;;;;27.61;33.76;99645.31;5084229;28;20028;-65
2021/08/15 09:30:18;;;;;;;5.07;1.30;;;;;;;27.90;32.39;99644.44;5083912;28;20085;-65
2021/08/15 09:32:48;;;;;;;8.05;1.50;;;;;;;27.99;32.39;99639.25;5082254;28;20036;-64
2021/08/15 09:35:36;;;;;;;7.05;2.22;;;;;;;27.93;32.86;99641.50;5082540;28;20025;-64
2021/08/15 09:38:05;;;;;;;7.85;1.98;;;;;;;27.59;32.70;99656.13;5083968;28;20025;-64
2021/08/15 09:40:39;;;;;;;6.68;1.63;;;;;;;26.88;33.86;99666.06;5083700;28;20032;-64
2021/08/15 09:43:07;;;;;;;6.95;1.73;;;;;;;25.81;34.63;99661.00;5082343;28;20035;-64
2021/08/15 09:45:44;;;;;;;5.80;1.80;;;;;;;24.92;36.52;99667.41;5082516;28;20029;-64
2021/08/15 09:48:19;;;;;;;9.63;1.77;;;;;;;25.04;37.35;99663.75;5084028;28;20047;-63
2021/08/15 09:51:08;;;;;;;5.95;1.60;;;;;;;25.67;36.94;99678.09;5083738;28;20028;-64
2021/08/15 09:53:35;;;;;;;8.90;1.75;;;;;;;26.02;35.58;99659.28;5083553;28;20021;-64
2021/08/15 09:56:01;;;;;;;8.90;1.95;;;;;;;26.04;35.71;99657.34;5083911;28;20392;-64
2021/08/15 09:58:26;;;;;;;4.05;1.40;;;;;;;26.10;35.07;99672.78;5083683;28;20029;-64
2021/08/15 10:00:52;;;;;;;6.10;1.38;;;;;;;26.22;35.80;99669.06;5083295;28;20055;-67
2021/08/15 10:03:18;;;;;;;8.18;1.60;;;;;;;26.27;35.40;99665.13;5082071;28;20043;-66
2021/08/15 10:05:44;;;;;;;6.10;1.60;;;;;;;25.97;35.56;99671.19;5082070;28;20024;-65
2021/08/15 10:08:09;;;;;;;5.30;1.88;;;;;;;25.48;36.27;99673.50;5082000;28;20031;-64
2021/08/15 10:10:36;;;;;;;4.82;1.45;;;;;;;24.73;37.73;99682.09;5083281;28;20107;-64
2021/08/15 10:13:02;;;;;;;7.45;1.90;;;;;;;24.52;37.97;99677.56;5083305;28;20024;-65
2021/08/15 10:15:28;;;;;;;6.07;1.48;;;;;;;24.28;39.04;99689.16;5083177;28;20526;-64
2021/08/15 10:17:54;;;;;;;6.35;1.63;;;;;;;24.68;39.08;99679.00;5082987;28;20048;-65
2021/08/15 10:20:27;;;;;;;7.10;1.67;;;;;;;25.40;37.52;99676.75;5081856;28;20035;-68
2021/08/15 10:23:04;;;;;;;4.82;1.40;;;;;;;25.97;35.84;99687.13;5082955;28;20027;-66
2021/08/15 10:25:35;;;;;;;6.65;1.38;;;;;;;26.26;35.82;99677.63;5082974;28;20038;-67
2021/08/15 10:28:01;;;;;;;7.25;2.08;;;;;;;26.22;36.31;99679.69;5083278;28;20504;-64
2021/08/15 10:30:26;;;;;;;6.47;1.77;;;;;;;26.47;36.83;99695.38;5083143;28;20088;-65
2021/08/15 10:32:55;;;;;;;6.70;1.73;;;;;;;26.70;35.72;99682.69;5082970;28;20078;-67
2021/08/15 10:35:33;;;;;;;8.73;1.85;;;;;;;26.24;35.78;99691.06;5081588;28;20033;-65
2021/08/15 10:38:01;;;;;;;7.40;1.63;;;;;;;25.96;36.17;99685.44;5083321;28;20115;-64
2021/08/15 10:40:39;;;;;;;7.82;1.45;;;;;;;26.05;36.44;99682.97;5083414;28;20464;-64
2021/08/15 10:43:09;;;;;;;7.45;1.70;;;;;;;26.20;36.32;99680.81;5083076;28;20024;-66
2021/08/15 10:45:35;;;;;;;7.80;2.05;;;;;;;26.26;35.64;99687.41;5082740;28;20024;-68
2021/08/15 10:48:08;;;;;;;8.70;2.40;;;;;;;26.14;36.20;99689.28;5082950;28;20021;-67
2021/08/15 10:50:48;;;;;;;5.20;1.60;;;;;;;25.83;36.47;99696.25;5083185;28;20031;-66
2021/08/15 10:53:28;;;;;;;8.20;1.77;;;;;;;25.82;36.39;99693.72;5083077;28;20025;-67
2021/08/15 10:56:04;;;;;;;9.38;2.10;;;;;;;25.57;36.45;99677.19;5082914;28;20120;-65
2021/08/15 10:58:44;;;;;;;7.60;1.92;;;;;;;25.16;37.60;99700.88;5081641;28;20450;-65
2021/08/15 11:01:39;;;;;;;6.43;1.70;;;;;;;24.62;38.38;99697.09;5083345;28;20031;-63
2021/08/15 11:04:04;;;;;;;8.27;2.05;;;;;;;23.99;39.04;99695.69;5082609;28;20028;-64
2021/08/15 11:06:29;;;;;;;9.07;2.03;;;;;;;23.58;40.42;99697.88;5082842;28;20432;-65
2021/08/15 11:08:56;;;;;;;8.70;2.25;;;;;;;23.39;41.45;99696.59;5082471;28;20025;-65
2021/08/15 11:11:33;;;;;;;8.02;2.00;;;;;;;22.97;41.92;99701.41;5082916;28;20099;-64
2021/08/15 11:14:17;;;;;;;12.50;1.98;;;;;;;22.34;43.51;99707.50;5082667;28;20024;-64
2021/08/15 11:17:11;;;;;;;7.32;1.73;;;;;;;22.00;44.51;99695.66;5082642;28;20050;-63
2021/08/15 11:19:37;;;;;;;8.18;1.98;;;;;;;21.91;45.86;99699.78;5082473;28;20063;-63
2021/08/15 11:22:24;;;;;;;8.05;2.03;;;;;;;21.74;45.72;99710.63;5082636;28;20040;-63
2021/08/15 11:24:49;;;;;;;8.75;3.60;;;;;;;21.54;46.28;99705.72;5082384;28;20088;-64
2021/08/15 11:27:19;;;;;;;8.05;1.92;;;;;;;21.53;46.48;99705.81;5082698;28;20047;-64
2021/08/15 11:29:47;;;;;;;10.52;1.90;;;;;;;21.60;45.72;99699.16;5082533;28;20490;-64